createdAt,value
2018-05-13T00:01:40.098Z,18.40
2018-05-13T00:04:06.658Z,18.30
2018-05-13T00:06:33.016Z,18.30
2018-05-13T00:09:00.153Z,18.30
2018-05-13T00:11:27.379Z,18.30
2018-05-13T00:13:53.748Z,18.30
2018-05-13T00:16:20.132Z,18.20
2018-05-13T00:18:46.471Z,18.20
2018-05-13T00:21:12.855Z,18.20
2018-05-13T00:23:39.954Z,18.20
2018-05-13T00:26:06.978Z,18.10
2018-05-13T00:28:33.985Z,18.10
2018-05-13T00:31:00.328Z,18.10
2018-05-13T00:33:27.538Z,18.00
2018-05-13T00:35:53.883Z,18.00
2018-05-13T00:38:20.268Z,18.00
2018-05-13T00:40:47.317Z,18.00
2018-05-13T00:43:13.647Z,17.90
2018-05-13T00:45:40.025Z,17.90
2018-05-13T00:48:06.959Z,17.90
2018-05-13T00:50:34.081Z,17.90
2018-05-13T00:53:00.342Z,17.80
2018-05-13T00:55:26.697Z,17.80
2018-05-13T00:57:53.112Z,17.80
2018-05-13T01:00:19.451Z,17.80
2018-05-13T01:02:45.789Z,17.80
2018-05-13T01:05:12.121Z,17.80
2018-05-13T01:07:38.419Z,17.70
2018-05-13T01:10:05.461Z,17.70
2018-05-13T01:12:31.742Z,17.70
2018-05-13T01:14:58.069Z,17.70
2018-05-13T01:17:24.425Z,17.60
2018-05-13T01:19:50.824Z,17.60
2018-05-13T01:22:17.197Z,17.60
2018-05-13T01:24:44.313Z,17.60
2018-05-13T01:27:10.652Z,17.50
2018-05-13T01:29:36.962Z,17.50
2018-05-13T01:32:03.281Z,17.50
2018-05-13T01:34:29.680Z,17.50
2018-05-13T01:36:56.376Z,17.50
2018-05-13T01:39:22.811Z,17.40
2018-05-13T01:41:49.217Z,17.50
2018-05-13T01:44:15.761Z,17.40
2018-05-13T01:46:42.891Z,17.40
2018-05-13T01:49:09.268Z,17.40
2018-05-13T01:51:35.684Z,17.40
2018-05-13T01:54:02.105Z,17.40
2018-05-13T01:56:28.450Z,17.30
2018-05-13T01:58:54.841Z,17.30
2018-05-13T02:01:21.207Z,17.30
2018-05-13T02:03:48.382Z,17.20
2018-05-13T02:06:14.825Z,17.20
2018-05-13T02:08:42.080Z,17.20
2018-05-13T02:11:09.088Z,17.20
2018-05-13T02:13:35.414Z,17.20
2018-05-13T02:16:09.778Z,17.20
2018-05-13T02:18:36.216Z,17.20
2018-05-13T02:21:04.056Z,17.20
2018-05-13T02:23:31.604Z,17.20
2018-05-13T02:25:58.700Z,17.10
2018-05-13T02:28:25.012Z,17.10
2018-05-13T02:30:52.197Z,17.10
2018-05-13T02:33:18.612Z,17.00
2018-05-13T02:35:45.052Z,17.10
2018-05-13T02:38:11.479Z,17.00
2018-05-13T02:40:37.864Z,17.00
2018-05-13T02:43:04.949Z,17.00
2018-05-13T02:45:31.400Z,17.00
2018-05-13T02:47:57.759Z,17.00
2018-05-13T02:50:24.164Z,17.00
2018-05-13T02:52:50.707Z,16.90
2018-05-13T02:55:17.065Z,16.90
2018-05-13T02:57:43.495Z,16.90
2018-05-13T03:00:10.718Z,16.90
2018-05-13T03:02:37.069Z,16.90
2018-05-13T03:05:03.562Z,16.90
2018-05-13T03:07:30.615Z,16.80
2018-05-13T03:09:57.763Z,16.80
2018-05-13T03:12:24.090Z,16.80
2018-05-13T03:14:51.171Z,16.80
2018-05-13T03:17:18.263Z,16.80
2018-05-13T03:19:44.546Z,16.80
2018-05-13T03:22:11.637Z,16.80
2018-05-13T03:24:38.110Z,16.70
2018-05-13T03:27:05.360Z,16.80
2018-05-13T03:29:32.505Z,16.70
2018-05-13T03:31:58.803Z,16.70
2018-05-13T03:34:25.315Z,16.70
2018-05-13T03:36:51.721Z,16.70
2018-05-13T03:39:18.792Z,16.70
2018-05-13T03:41:46.025Z,16.70
2018-05-13T03:44:13.053Z,16.70
2018-05-13T03:46:40.206Z,16.60
2018-05-13T03:49:06.539Z,16.60
2018-05-13T03:51:32.882Z,16.60
2018-05-13T03:53:59.956Z,16.60
2018-05-13T03:56:29.576Z,16.60
2018-05-13T03:58:56.838Z,16.60
2018-05-13T04:01:23.341Z,16.60
2018-05-13T04:03:50.461Z,16.50
2018-05-13T04:06:16.818Z,16.50
2018-05-13T04:08:43.868Z,16.50
2018-05-13T04:11:11.111Z,16.50
2018-05-13T04:13:37.424Z,16.50
2018-05-13T04:16:04.016Z,16.50
2018-05-13T04:18:30.379Z,16.50
2018-05-13T04:20:56.688Z,16.50
2018-05-13T04:23:23.755Z,16.50
2018-05-13T04:25:50.139Z,16.50
2018-05-13T04:28:16.615Z,16.50
2018-05-13T04:30:43.047Z,16.40
2018-05-13T04:33:10.114Z,16.40
2018-05-13T04:35:36.526Z,16.40
2018-05-13T04:38:02.918Z,16.40
2018-05-13T04:40:29.361Z,16.40
2018-05-13T04:42:55.702Z,16.40
2018-05-13T04:45:22.842Z,16.40
2018-05-13T04:47:49.219Z,16.40
2018-05-13T04:50:15.740Z,16.40
2018-05-13T04:52:42.127Z,16.40
2018-05-13T04:55:09.265Z,16.30
2018-05-13T04:57:36.608Z,16.30
2018-05-13T05:00:02.952Z,16.30
2018-05-13T05:02:29.563Z,16.30
2018-05-13T05:04:56.006Z,16.30
2018-05-13T05:07:22.403Z,16.30
2018-05-13T05:09:49.519Z,16.30
2018-05-13T05:12:15.868Z,16.30
2018-05-13T05:14:42.458Z,16.30
2018-05-13T05:17:08.788Z,16.30
2018-05-13T05:19:35.969Z,16.20
2018-05-13T05:22:02.342Z,16.20
2018-05-13T05:24:29.573Z,16.20
2018-05-13T05:26:56.785Z,16.20
2018-05-13T05:29:23.218Z,16.20
2018-05-13T05:31:49.650Z,16.20
2018-05-13T05:34:16.105Z,16.20
2018-05-13T05:36:42.661Z,16.20
2018-05-13T05:39:08.958Z,16.20
2018-05-13T05:41:35.333Z,16.20
2018-05-13T05:44:01.659Z,16.20
2018-05-13T05:46:27.955Z,16.20
2018-05-13T05:48:54.241Z,16.20
2018-05-13T05:51:20.616Z,16.20
2018-05-13T05:53:47.016Z,16.10
2018-05-13T05:56:14.071Z,16.10
2018-05-13T05:58:41.268Z,16.10
2018-05-13T06:01:07.656Z,16.10
2018-05-13T06:03:33.973Z,16.10
2018-05-13T06:06:01.065Z,16.10
2018-05-13T06:08:28.124Z,16.10
2018-05-13T06:10:54.423Z,16.10
2018-05-13T06:13:20.681Z,16.10
2018-05-13T06:15:47.201Z,16.10
2018-05-13T06:18:13.617Z,16.10
2018-05-13T06:20:41.521Z,16.00
2018-05-13T06:23:08.172Z,16.00
2018-05-13T06:25:34.503Z,16.10
2018-05-13T06:28:00.919Z,16.00
2018-05-13T06:30:27.275Z,16.00
2018-05-13T06:32:53.643Z,16.00
2018-05-13T06:35:19.964Z,16.00
2018-05-13T06:37:46.299Z,16.00
2018-05-13T06:40:12.670Z,16.00
2018-05-13T06:42:39.048Z,16.00
2018-05-13T06:45:05.380Z,16.00
2018-05-13T06:47:31.725Z,16.00
2018-05-13T06:49:58.850Z,16.00
2018-05-13T06:52:25.190Z,16.00
2018-05-13T06:57:14.847Z,16.00
2018-05-13T06:59:41.194Z,16.00
2018-05-13T07:02:07.579Z,16.00
2018-05-13T07:04:33.942Z,16.00
2018-05-13T07:07:01.000Z,16.00
2018-05-13T07:09:27.339Z,15.90
2018-05-13T07:11:53.756Z,15.90
2018-05-13T07:14:21.043Z,15.90
2018-05-13T07:16:52.806Z,15.90
2018-05-13T07:19:19.607Z,15.90
2018-05-13T07:21:48.349Z,15.80
2018-05-13T07:24:15.794Z,15.80
2018-05-13T07:29:32.948Z,15.80
2018-05-13T07:31:59.292Z,15.80
2018-05-13T07:34:25.677Z,15.70
2018-05-13T07:36:52.041Z,15.70
2018-05-13T07:39:18.367Z,15.70
2018-05-13T07:41:45.522Z,15.70
2018-05-13T07:44:11.858Z,15.70
2018-05-13T07:46:38.222Z,15.70
2018-05-13T07:49:05.576Z,15.60
2018-05-13T07:51:31.944Z,15.60
2018-05-13T07:53:59.204Z,15.60
2018-05-13T07:56:26.327Z,15.60
2018-05-13T07:58:52.941Z,15.50
2018-05-13T08:01:19.320Z,15.50
2018-05-13T08:03:46.400Z,15.50
2018-05-13T08:06:12.838Z,15.50
2018-05-13T08:08:39.890Z,15.50
2018-05-13T08:11:06.240Z,15.40
2018-05-13T08:13:32.557Z,15.50
2018-05-13T08:15:58.882Z,15.40
2018-05-13T08:18:25.215Z,15.40
2018-05-13T08:20:51.615Z,15.40
2018-05-13T08:23:18.748Z,15.40
2018-05-13T08:25:45.878Z,15.40
2018-05-13T08:28:12.230Z,15.40
2018-05-13T08:30:38.667Z,15.40
2018-05-13T08:33:05.011Z,15.30
2018-05-13T08:35:31.378Z,15.30
2018-05-13T08:37:57.693Z,15.30
2018-05-13T08:40:24.795Z,15.30
2018-05-13T08:42:51.133Z,15.30
2018-05-13T08:45:17.548Z,15.30
2018-05-13T08:47:43.933Z,15.30
2018-05-13T08:50:10.985Z,15.30
2018-05-13T08:52:38.084Z,15.20
2018-05-13T08:55:04.462Z,15.20
2018-05-13T08:57:30.865Z,15.20
2018-05-13T08:59:58.369Z,15.20
2018-05-13T09:02:25.467Z,15.20
2018-05-13T09:04:51.845Z,15.20
2018-05-13T09:07:18.229Z,15.20
2018-05-13T09:09:44.711Z,15.20
2018-05-13T09:12:11.861Z,15.10
2018-05-13T09:14:38.960Z,15.10
2018-05-13T09:17:05.324Z,15.10
2018-05-13T09:19:31.674Z,15.10
2018-05-13T09:21:58.231Z,15.10
2018-05-13T09:24:24.616Z,15.10
2018-05-13T09:26:51.070Z,15.10
2018-05-13T09:29:17.408Z,15.10
2018-05-13T09:31:43.727Z,15.10
2018-05-13T09:34:10.151Z,15.10
2018-05-13T09:36:36.549Z,15.10
2018-05-13T09:39:02.935Z,15.10
2018-05-13T09:41:29.287Z,15.10
2018-05-13T09:43:56.397Z,15.10
2018-05-13T09:46:23.559Z,15.00
2018-05-13T09:48:49.980Z,15.00
2018-05-13T09:51:16.300Z,15.00
2018-05-13T09:53:42.585Z,15.00
2018-05-13T09:56:08.903Z,15.00
2018-05-13T09:58:35.229Z,15.00
2018-05-13T10:01:02.353Z,15.00
2018-05-13T10:03:29.448Z,15.00
2018-05-13T10:05:56.550Z,15.00
2018-05-13T10:08:23.681Z,15.00
2018-05-13T10:10:50.055Z,15.00
2018-05-13T10:13:16.389Z,15.00
2018-05-13T10:15:42.792Z,15.00
2018-05-13T10:18:09.105Z,15.00
2018-05-13T10:20:36.193Z,15.00
2018-05-13T10:23:02.505Z,15.00
2018-05-13T10:25:28.815Z,15.00
2018-05-13T10:27:55.182Z,15.00
2018-05-13T10:30:21.564Z,15.00
2018-05-13T10:32:47.872Z,15.10
2018-05-13T10:35:14.245Z,15.10
2018-05-13T10:37:41.350Z,15.20
2018-05-13T10:40:07.661Z,15.20
2018-05-13T10:42:34.020Z,15.20
2018-05-13T10:45:00.300Z,15.20
2018-05-13T10:47:26.611Z,15.20
2018-05-13T10:49:52.898Z,15.30
2018-05-13T10:52:19.217Z,15.30
2018-05-13T10:54:45.567Z,15.30
2018-05-13T10:57:11.887Z,15.30
2018-05-13T10:59:38.244Z,15.30
2018-05-13T11:02:04.513Z,15.30
2018-05-13T11:04:31.580Z,15.40
2018-05-13T11:06:58.020Z,15.40
2018-05-13T11:09:40.137Z,15.40
2018-05-13T11:12:07.173Z,15.50
2018-05-13T11:14:34.019Z,15.50
2018-05-13T11:17:00.458Z,15.50
2018-05-13T11:19:26.739Z,15.50
2018-05-13T11:21:53.852Z,15.60
2018-05-13T11:24:20.416Z,15.60
2018-05-13T11:26:46.724Z,15.60
2018-05-13T11:29:13.898Z,15.60
2018-05-13T11:31:40.207Z,15.70
2018-05-13T11:34:06.609Z,15.70
2018-05-13T11:36:32.974Z,15.70
2018-05-13T11:39:00.047Z,15.70
2018-05-13T11:41:26.418Z,15.70
2018-05-13T11:43:52.725Z,15.70
2018-05-13T11:46:19.156Z,15.80
2018-05-13T11:48:46.097Z,15.80
2018-05-13T11:51:13.018Z,15.80
2018-05-13T11:53:40.090Z,15.80
2018-05-13T11:56:06.346Z,15.80
2018-05-13T11:58:32.688Z,15.80
2018-05-13T12:00:59.918Z,15.80
2018-05-13T12:03:26.240Z,15.80
2018-05-13T12:05:52.706Z,15.80
2018-05-13T12:08:19.768Z,15.90
2018-05-13T12:10:46.824Z,15.90
2018-05-13T12:13:13.214Z,15.90
2018-05-13T12:15:39.532Z,15.90
2018-05-13T12:18:05.833Z,15.90
2018-05-13T12:20:32.283Z,15.90
2018-05-13T12:22:58.874Z,16.00
2018-05-13T12:25:25.269Z,16.00
2018-05-13T12:27:52.599Z,16.00
2018-05-13T12:30:19.033Z,16.00
2018-05-13T12:32:45.325Z,16.10
2018-05-13T12:35:11.675Z,16.10
2018-05-13T12:37:38.197Z,16.10
2018-05-13T12:40:05.192Z,16.10
2018-05-13T12:42:31.559Z,16.20
2018-05-13T12:44:57.973Z,16.20
2018-05-13T12:47:24.366Z,16.20
2018-05-13T12:49:51.461Z,16.20
2018-05-13T12:52:17.997Z,16.20
2018-05-13T12:54:44.343Z,16.20
2018-05-13T12:57:11.453Z,16.30
2018-05-13T12:59:37.865Z,16.30
2018-05-13T13:02:04.237Z,16.30
2018-05-13T13:04:30.565Z,16.30
2018-05-13T13:06:56.889Z,16.30
2018-05-13T13:09:24.406Z,16.30
2018-05-13T13:11:50.832Z,16.40
2018-05-13T13:14:18.732Z,16.40
2018-05-13T13:16:45.893Z,16.40
2018-05-13T13:19:12.200Z,16.40
2018-05-13T13:21:38.611Z,16.40
2018-05-13T13:24:04.989Z,16.40
2018-05-13T13:26:31.328Z,16.40
2018-05-13T13:28:57.671Z,16.40
2018-05-13T13:31:23.958Z,16.40
2018-05-13T13:33:50.371Z,16.40
2018-05-13T13:36:16.754Z,16.40
2018-05-13T13:38:43.141Z,16.40
2018-05-13T13:41:09.525Z,16.40
2018-05-13T13:43:35.800Z,16.40
2018-05-13T13:46:02.254Z,16.40
2018-05-13T13:48:29.370Z,16.40
2018-05-13T13:50:55.764Z,16.40
2018-05-13T13:53:22.201Z,16.40
2018-05-13T13:55:48.949Z,16.40
2018-05-13T13:58:15.379Z,16.50
2018-05-13T14:00:41.771Z,16.50
2018-05-13T14:03:08.966Z,16.50
2018-05-13T14:05:35.306Z,16.50
2018-05-13T14:08:01.658Z,16.50
2018-05-13T14:10:28.002Z,16.50
2018-05-13T14:12:54.276Z,16.50
2018-05-13T14:15:21.371Z,16.50
2018-05-13T14:17:47.688Z,16.50
2018-05-13T14:20:14.079Z,16.60
2018-05-13T14:22:40.351Z,16.60
2018-05-13T14:25:06.683Z,16.60
2018-05-13T14:27:33.096Z,16.60
2018-05-13T14:29:59.503Z,16.50
2018-05-13T14:32:25.855Z,16.60
2018-05-13T14:34:52.987Z,16.50
2018-05-13T14:37:19.337Z,16.50
2018-05-13T14:39:46.508Z,16.60
2018-05-13T14:42:12.805Z,16.50
2018-05-13T14:44:39.147Z,16.50
2018-05-13T14:47:06.205Z,16.60
2018-05-13T14:49:32.603Z,16.50
2018-05-13T14:51:58.962Z,16.60
2018-05-13T14:54:26.086Z,16.60
2018-05-13T14:59:39.051Z,16.60
2018-05-13T15:02:05.520Z,16.60
2018-05-13T15:04:32.971Z,16.60
2018-05-13T15:06:59.584Z,16.50
2018-05-13T15:09:26.003Z,16.60
2018-05-13T15:11:52.356Z,16.50
2018-05-13T15:14:18.839Z,16.50
2018-05-13T15:16:45.352Z,16.50
2018-05-13T15:19:11.764Z,16.50
2018-05-13T15:21:38.229Z,16.50
2018-05-13T15:24:04.624Z,16.50
2018-05-13T15:26:31.691Z,16.50
2018-05-13T15:28:58.187Z,16.50
2018-05-13T15:31:25.285Z,16.50
2018-05-13T15:33:51.732Z,16.50
2018-05-13T15:36:18.340Z,16.50
2018-05-13T15:38:52.287Z,16.50
2018-05-13T15:41:29.877Z,16.50
2018-05-13T15:43:59.282Z,16.50
2018-05-13T15:46:27.732Z,16.50
2018-05-13T15:48:54.038Z,16.50
2018-05-13T15:51:20.325Z,16.50
2018-05-13T15:53:47.362Z,16.50
2018-05-13T15:56:14.454Z,16.50
2018-05-13T15:58:40.757Z,16.50
2018-05-13T16:01:07.755Z,16.50
2018-05-13T16:03:34.053Z,16.50
2018-05-13T16:06:00.417Z,16.50
2018-05-13T16:08:27.464Z,16.50
2018-05-13T16:10:53.782Z,16.50
2018-05-13T16:13:20.175Z,16.50
2018-05-13T16:15:46.541Z,16.50
2018-05-13T16:18:13.666Z,16.50
2018-05-13T16:20:40.096Z,16.50
2018-05-13T16:23:06.404Z,16.50
2018-05-13T16:25:32.680Z,16.50
2018-05-13T16:27:59.645Z,16.50
2018-05-13T16:30:26.091Z,16.50
2018-05-13T16:32:52.529Z,16.50
2018-05-13T16:35:18.819Z,16.60
2018-05-13T16:37:45.139Z,16.60
2018-05-13T16:40:11.494Z,16.60
2018-05-13T16:42:38.033Z,16.60
2018-05-13T16:45:04.404Z,16.70
2018-05-13T16:47:30.741Z,16.60
2018-05-13T16:49:57.165Z,16.70
2018-05-13T16:52:23.497Z,16.70
2018-05-13T16:54:49.797Z,16.70
2018-05-13T16:57:16.178Z,16.70
2018-05-13T16:59:42.538Z,16.70
2018-05-13T17:02:08.871Z,16.70
2018-05-13T17:04:36.865Z,16.60
2018-05-13T17:07:03.276Z,16.60
2018-05-13T17:09:29.582Z,16.60
2018-05-13T17:11:56.617Z,16.60
2018-05-13T17:14:23.107Z,16.60
2018-05-13T17:16:49.403Z,16.60
2018-05-13T17:19:15.759Z,16.60
2018-05-13T17:21:42.205Z,16.60
2018-05-13T17:24:08.582Z,16.60
2018-05-13T17:26:34.903Z,16.60
2018-05-13T17:29:01.323Z,16.60
2018-05-13T17:31:27.802Z,16.60
2018-05-13T17:33:54.370Z,16.60
2018-05-13T17:36:35.604Z,16.60
2018-05-13T17:39:01.960Z,16.50
2018-05-13T17:41:29.061Z,16.50
2018-05-13T17:43:56.260Z,16.50
2018-05-13T17:46:23.399Z,16.50
2018-05-13T17:48:49.773Z,16.50
2018-05-13T17:51:16.310Z,16.50
2018-05-13T17:53:42.739Z,16.50
2018-05-13T17:56:09.138Z,16.50
2018-05-13T17:58:35.530Z,16.40
2018-05-13T18:01:02.092Z,16.50
2018-05-13T18:03:28.618Z,16.40
2018-05-13T18:05:54.967Z,16.50
2018-05-13T18:08:21.277Z,16.50
2018-05-13T18:10:47.746Z,16.50
2018-05-13T18:13:14.934Z,16.50
2018-05-13T18:15:42.089Z,16.50
2018-05-13T18:18:08.470Z,16.50
2018-05-13T18:20:34.794Z,16.50
2018-05-13T18:23:01.351Z,16.50
2018-05-13T18:25:27.683Z,16.50
2018-05-13T18:27:54.698Z,16.60
2018-05-13T18:30:21.112Z,16.60
2018-05-13T18:32:47.438Z,16.60
2018-05-13T18:35:14.320Z,16.60
2018-05-13T18:37:40.642Z,16.60
2018-05-13T18:40:06.994Z,16.60
2018-05-13T18:42:34.121Z,16.50
2018-05-13T18:45:00.441Z,16.60
2018-05-13T18:47:26.756Z,16.60
2018-05-13T18:49:53.074Z,16.60
2018-05-13T18:52:19.452Z,16.50
2018-05-13T18:54:45.800Z,16.50
2018-05-13T18:57:12.197Z,16.60
2018-05-13T18:59:38.545Z,16.60
2018-05-13T19:02:04.978Z,16.50
2018-05-13T19:04:31.406Z,16.60
2018-05-13T19:06:57.845Z,16.60
2018-05-13T19:09:24.179Z,16.60
2018-05-13T19:11:50.489Z,16.50
2018-05-13T19:14:17.036Z,16.50
2018-05-13T19:16:44.052Z,16.50
2018-05-13T19:19:10.393Z,16.50
2018-05-13T19:21:36.731Z,16.50
2018-05-13T19:24:03.083Z,16.50
2018-05-13T19:26:29.392Z,16.50
2018-05-13T19:28:56.494Z,16.50
2018-05-13T19:31:22.870Z,16.40
2018-05-13T19:33:49.256Z,16.50
2018-05-13T19:36:15.628Z,16.40
2018-05-13T19:38:41.950Z,16.40
2018-05-13T19:41:08.517Z,16.40
2018-05-13T19:43:35.552Z,16.40
2018-05-13T19:46:02.706Z,16.40
2018-05-13T19:48:29.013Z,16.40
2018-05-13T19:50:55.402Z,16.30
2018-05-13T19:53:21.819Z,16.40
2018-05-13T19:55:49.641Z,16.40
2018-05-13T19:58:18.013Z,16.30
2018-05-13T20:00:44.850Z,16.30
2018-05-13T20:03:11.360Z,16.30
2018-05-13T20:05:38.135Z,16.30
2018-05-13T20:08:04.666Z,16.30
2018-05-13T20:10:31.736Z,16.30
2018-05-13T20:12:58.826Z,16.30
2018-05-13T20:15:25.246Z,16.20
2018-05-13T20:17:51.490Z,16.20
2018-05-13T20:20:18.531Z,16.20
2018-05-13T20:22:45.518Z,16.20
2018-05-13T20:25:11.893Z,16.20
2018-05-13T20:27:38.293Z,16.20
2018-05-13T20:30:05.734Z,16.20
2018-05-13T20:32:34.208Z,16.20
2018-05-13T20:35:01.883Z,16.10
2018-05-13T20:37:32.289Z,16.10
2018-05-13T20:39:58.662Z,16.10
2018-05-13T20:42:25.604Z,16.10
2018-05-13T20:44:51.973Z,16.10
2018-05-13T20:47:18.456Z,16.10
2018-05-13T20:49:44.802Z,16.10
2018-05-13T20:52:11.224Z,16.10
2018-05-13T20:54:37.553Z,16.00
2018-05-13T20:57:04.043Z,16.00
2018-05-13T20:59:30.805Z,16.00
2018-05-13T21:01:58.390Z,16.00
2018-05-13T21:04:25.545Z,16.00
2018-05-13T21:06:51.885Z,15.90
2018-05-13T21:09:18.177Z,16.00
2018-05-13T21:11:44.525Z,15.90
2018-05-13T21:14:10.991Z,15.90
2018-05-13T21:16:37.348Z,15.90
2018-05-13T21:19:06.936Z,15.90
2018-05-13T21:21:33.351Z,15.90
2018-05-13T21:23:59.693Z,15.90
2018-05-13T21:26:26.117Z,15.90
2018-05-13T21:28:52.573Z,15.80
2018-05-13T21:31:18.888Z,15.80
2018-05-13T21:33:45.348Z,15.80
2018-05-13T21:36:11.757Z,15.80
2018-05-13T21:38:38.637Z,15.80
2018-05-13T21:41:05.749Z,15.80
2018-05-13T21:43:32.187Z,15.70
2018-05-13T21:45:58.506Z,15.70
2018-05-13T21:48:24.968Z,15.70
2018-05-13T21:50:51.397Z,15.70
2018-05-13T21:53:17.743Z,15.70
2018-05-13T21:55:44.075Z,15.70
2018-05-13T21:58:10.401Z,15.70
2018-05-13T22:00:36.709Z,15.70
2018-05-13T22:03:04.563Z,15.60
2018-05-13T22:05:30.896Z,15.60
2018-05-13T22:07:58.035Z,15.60
2018-05-13T22:10:24.392Z,15.60
2018-05-13T22:12:50.833Z,15.60
2018-05-13T22:15:17.268Z,15.60
2018-05-13T22:17:43.600Z,15.50
2018-05-13T22:20:11.676Z,15.50
2018-05-13T22:22:38.203Z,15.50
2018-05-13T22:25:05.332Z,15.50
2018-05-13T22:27:32.997Z,15.50
2018-05-13T22:29:59.428Z,15.40
2018-05-13T22:32:25.936Z,15.40
2018-05-13T22:34:52.252Z,15.40
2018-05-13T22:37:18.580Z,15.40
2018-05-13T22:39:45.000Z,15.40
2018-05-13T22:42:11.412Z,15.40
2018-05-13T22:44:37.722Z,15.40
2018-05-13T22:47:04.584Z,15.30
2018-05-13T22:49:32.035Z,15.40
2018-05-13T22:51:58.391Z,15.30
2018-05-13T22:54:25.462Z,15.30
2018-05-13T22:56:51.806Z,15.30
2018-05-13T22:59:18.136Z,15.30
2018-05-13T23:01:44.517Z,15.20
2018-05-13T23:04:11.560Z,15.20
2018-05-13T23:06:37.980Z,15.20
2018-05-13T23:09:05.140Z,15.20
2018-05-13T23:11:31.470Z,15.20
2018-05-13T23:13:58.011Z,15.20
2018-05-13T23:16:24.356Z,15.20
2018-05-13T23:18:50.770Z,15.20
2018-05-13T23:21:17.057Z,15.10
2018-05-13T23:23:44.069Z,15.10
2018-05-13T23:26:10.384Z,15.10
2018-05-13T23:28:37.795Z,15.10
2018-05-13T23:53:15.639Z,15.00
2018-05-13T23:55:42.734Z,14.90
2018-05-13T23:58:09.235Z,14.90
